Albatros — C6CN4 — position and weather

sailwx.info

Track history (hours):
 
Tides and Currents Weather Stations Pressure Air Temp Water Temp Dewpoint Dewpoint Depression Visibility Wind Speed Wind Dir Waves Ship Positions

Albatros

Last reported at 2020-Apr-06 15:29 UTC. Time now 2020-Apr-06 17:59 UTC.
Position N 52°44' E 004°03'.

Length 205.5 m; beam 25.2 m; draft 7.6 m.

Type: Passenger vessel. MMSI: 308784000.

Date/timePositionNaut miles runAvg speedWind from/ knotsBaromVisibWave heightAir tempDewpointWater temp
2020-Apr-06 15:29N 52°44' E 004°03'2214.6
2020-Apr-06 14:00N 52°28' E 003°38'3416.9
2020-Apr-06 11:59N 52°03' E 003°00'4417.6
2020-Apr-06 09:31N 51°30' E 002°15'4015.9
2020-Apr-06 07:01N 50°59' E 001°35'1515.3
2020-Apr-06 06:01N 50°45' E 001°26'1615.5
2020-Apr-06 05:01N 50°35' E 001°07'815.8
2020-Apr-06 04:30N 50°30' E 000°56'12915.2
2020-Apr-05 20:00N 49°57' W 002°19'2617.6
2020-Apr-05 18:30N 49°50' W 002°59'4417.7
2020-Apr-05 16:00N 49°26' W 003°56'3917.8
2020-Apr-05 13:48N 49°04' W 004°47'517.9
2020-Apr-05 13:30N 49°01' W 004°53'1717.6
2020-Apr-05 12:33N 48°53' W 005°16'2616.8
2020-Apr-05 10:59N 48°36' W 005°45'5016.6
2020-Apr-05 08:00N 47°52' W 006°20'1215.8
2020-Apr-05 07:16N 47°42' W 006°28'615.7
2020-Apr-05 06:53N 47°36' W 006°32'1215.9
2020-Apr-05 06:08N 47°25' W 006°40'13716.5
2020-Apr-04 21:48N 45°24' W 008°11'37516.1
2020-Apr-03 22:30N 39°16' W 009°52'816.5
2020-Apr-03 22:00N 39°08' W 009°52'816.6
2020-Apr-03 21:30N 38°59' W 009°52'1616.5
2020-Apr-03 20:30N 38°43' W 009°52'1716.8
2020-Apr-03 19:30N 38°26' W 009°47'5016.7
2020-Apr-03 16:30N 37°37' W 009°35'816.5
2020-Apr-03 16:00N 37°29' W 009°34'816.4
2020-Apr-03 15:30N 37°21' W 009°32'4016.2
2020-Apr-03 13:00N 36°43' W 009°15'3316.3
2020-Apr-03 11:00N 36°33' W 008°36'  
2020-Mar-31 21:00N 36°46' E 013°29'1318.0
2020-Mar-31 20:16N 36°41' E 013°44'  
Track history (hours):
 
Tides and Currents Weather Stations Pressure Air Temp Water Temp Dewpoint Dewpoint Depression Visibility Wind Speed Wind Dir Waves Ship Positions

Albatros

Last reported at 2020-Apr-06 15:29 UTC. Time now 2020-Apr-06 17:59 UTC.
Position N 52°44' E 004°03'.

Length 205.5 m; beam 25.2 m; draft 7.6 m.

Type: Passenger vessel. MMSI: 308784000.

Date/timePositionNaut miles runAvg speedWind from/ knotsBaromVisibWave heightAir tempDewpointWater temp
2020-Apr-06 15:29N 52°44' E 004°03'2214.6
2020-Apr-06 14:00N 52°28' E 003°38'3416.9
2020-Apr-06 11:59N 52°03' E 003°00'4417.6
2020-Apr-06 09:31N 51°30' E 002°15'4015.9
2020-Apr-06 07:01N 50°59' E 001°35'1515.3
2020-Apr-06 06:01N 50°45' E 001°26'1615.5
2020-Apr-06 05:01N 50°35' E 001°07'815.8
2020-Apr-06 04:30N 50°30' E 000°56'12915.2
2020-Apr-05 20:00N 49°57' W 002°19'2617.6
2020-Apr-05 18:30N 49°50' W 002°59'4417.7
2020-Apr-05 16:00N 49°26' W 003°56'3917.8
2020-Apr-05 13:48N 49°04' W 004°47'517.9
2020-Apr-05 13:30N 49°01' W 004°53'1717.6
2020-Apr-05 12:33N 48°53' W 005°16'2616.8
2020-Apr-05 10:59N 48°36' W 005°45'5016.6
2020-Apr-05 08:00N 47°52' W 006°20'1215.8
2020-Apr-05 07:16N 47°42' W 006°28'615.7
2020-Apr-05 06:53N 47°36' W 006°32'1215.9
2020-Apr-05 06:08N 47°25' W 006°40'13716.5
2020-Apr-04 21:48N 45°24' W 008°11'37516.1
2020-Apr-03 22:30N 39°16' W 009°52'816.5
2020-Apr-03 22:00N 39°08' W 009°52'816.6
2020-Apr-03 21:30N 38°59' W 009°52'1616.5
2020-Apr-03 20:30N 38°43' W 009°52'1716.8
2020-Apr-03 19:30N 38°26' W 009°47'5016.7
2020-Apr-03 16:30N 37°37' W 009°35'816.5
2020-Apr-03 16:00N 37°29' W 009°34'816.4
2020-Apr-03 15:30N 37°21' W 009°32'4016.2
2020-Apr-03 13:00N 36°43' W 009°15'3316.3
2020-Apr-03 11:00N 36°33' W 008°36'  
2020-Mar-31 21:00N 36°46' E 013°29'1318.0
2020-Mar-31 20:16N 36°41' E 013°44'  

Dump ship's entire track history